Terminal Aerodrome Forecast
Issued by NWS

Current Version | Previous Version | Text Only | Print | Product List | Glossary On
Versions: 1 2 3 4 5 6 7 8 9 10 11 12 13
000
FTUS42 TJSJ 250500
TAFNCM
TAF
TNCM 250534Z 2506/2606 09006KT P6SM SCT018 SCT070
     FM251300 14012KT P6SM SCT022
     FM252300 12010KT P6SM FEW022=

USA.gov is the U.S. government's official web portal to all federal, state and local government web resources and services.